Date,TemperatureHighF,TemperatureAvgF,TemperatureLowF,DewpointHighF,DewpointAvgF,DewpointLowF,HumidityHigh,HumidityAvg,HumidityLow,PressureMaxIn,PressureMinIn,WindSpeedMaxMPH,WindSpeedAvgMPH,GustSpeedMaxMPH,PrecipitationSumIn
2013-2-1,5.6,-2.8,-11.1,1.8,-9.6,-16.9,84,72,56,30.42,30.14,12,1,14,0.03
2013-2-2,13.6,7.3,2.0,8.1,1.3,-3.0,85,76,62,30.27,30.05,8,0,8,0.01
2013-2-3,15.7,11.4,4.2,9.3,5.4,-0.6,86,76,63,30.16,30.03,14,2,16,0.04
2013-2-4,18.0,11.6,5.4,11.8,3.9,-0.5,89,71,54,30.14,29.81,9,0,9,0.02
2013-2-5,30.4,22.9,9.2,25.5,17.4,4.2,90,80,64,30.12,29.71,11,1,12,0.04
2013-2-6,26.0,16.2,5.4,20.1,11.8,-0.1,87,82,77,30.16,29.98,8,1,12,0.01
2013-2-7,27.4,25.4,21.4,23.3,21.6,18.0,92,85,78,30.29,30.03,9,1,14,0.00
2013-2-8,26.0,23.4,20.9,21.4,18.0,15.3,85,79,72,30.41,30.25,10,1,13,0.00
2013-2-9,32.1,28.4,25.1,28.5,25.0,21.3,92,87,83,30.26,29.95,16,2,16,0.00
2013-2-10,33.7,30.5,28.2,32.4,28.6,25.0,96,93,87,29.95,29.29,13,2,15,0.33
2013-2-11,30.0,24.6,16.7,28.5,20.1,11.8,94,83,76,30.08,29.36,21,4,21,0.00
2013-2-12,34.4,25.0,15.5,24.6,18.7,10.8,86,77,64,30.09,29.84,15,2,16,0.00
2013-2-13,40.7,30.1,18.3,32.7,24.0,13.9,90,78,63,29.84,29.58,10,0,11,0.04
2013-2-14,33.9,26.9,13.5,31.6,20.2,4.9,93,77,54,30.22,29.60,14,1,14,0.04
2013-2-15,18.2,11.1,5.3,6.9,3.2,-0.3,81,70,58,30.36,30.22,14,2,14,0.00
2013-2-16,19.2,10.2,2.4,8.4,3.7,-1.7,85,75,61,30.33,30.17,8,0,8,0.00
2013-2-17,31.7,21.9,8.8,23.5,15.0,3.7,85,75,64,30.18,29.66,18,2,18,0.00
2013-2-18,35.3,23.4,6.4,30.7,17.5,1.6,87,78,70,29.86,29.54,18,3,19,0.00
2013-2-19,6.5,3.7,-1.3,1.6,-4.1,-8.9,80,69,61,30.46,29.86,15,4,18,0.00
2013-2-20,18.2,7.0,-4.6,4.7,-2.0,-10.2,78,66,52,30.55,30.46,6,0,6,0.00
2013-2-21,22.7,15.8,7.4,13.2,7.2,1.4,78,69,56,30.51,30.13,11,2,11,0.00
2013-2-22,28.8,23.6,19.4,21.8,19.3,12.8,91,84,70,30.14,29.90,8,1,9,0.11
2013-2-23,29.2,23.3,17.2,22.8,18.5,12.8,87,82,72,30.01,29.89,10,1,10,0.00
2013-2-24,34.8,22.5,8.3,23.7,15.0,2.8,82,73,60,30.15,30.00,5,0,6,0.00
2013-2-25,37.5,31.0,20.1,25.2,22.1,15.4,83,70,58,30.14,30.05,6,0,7,0.00
2013-2-26,36.1,27.6,18.6,27.2,22.0,14.7,90,80,69,30.08,29.91,8,1,9,0.00
2013-2-27,40.6,32.3,28.1,26.5,24.6,21.8,83,73,53,30.06,29.90,14,1,16,0.00
2013-2-28,30.5,28.7,23.9,22.9,20.7,16.0,79,72,67,30.25,30.06,9,1,9,0.00